createdAt,value
2022-10-20T00:01:43.103Z,100861.78
2022-10-20T00:04:48.081Z,100867.22
2022-10-20T00:07:52.667Z,100869.66
2022-10-20T00:10:58.046Z,100865.72
2022-10-20T00:14:03.681Z,100867.59
2022-10-20T00:17:07.693Z,100869.97
2022-10-20T00:20:12.476Z,100864.81
2022-10-20T00:23:17.207Z,100875.69
2022-10-20T00:26:26.422Z,100870.94
2022-10-20T00:29:31.267Z,100860.97
2022-10-20T00:32:36.130Z,100870.59
2022-10-20T00:35:40.922Z,100877.06
2022-10-20T00:38:45.378Z,100880.09
2022-10-20T00:41:49.784Z,100881.34
2022-10-20T00:44:58.269Z,100885.41
2022-10-20T00:48:09.720Z,100868.75
2022-10-20T00:51:16.870Z,100884.00
2022-10-20T00:54:27.131Z,100872.16
2022-10-20T00:57:33.452Z,100872.25
2022-10-20T01:00:41.303Z,100871.09
2022-10-20T01:03:49.405Z,100884.47
2022-10-20T01:06:53.688Z,100850.91
2022-10-20T01:09:58.226Z,100839.88
2022-10-20T01:13:24.445Z,100867.03
2022-10-20T01:16:37.289Z,100859.53
2022-10-20T01:20:24.547Z,100880.34
2022-10-20T01:23:53.529Z,100881.34
2022-10-20T01:27:28.127Z,100889.03
2022-10-20T01:30:36.401Z,100883.66
2022-10-20T01:33:49.172Z,100883.69
2022-10-20T01:37:01.536Z,100842.91
2022-10-20T01:40:29.486Z,100877.13
2022-10-20T01:43:39.112Z,100874.00
2022-10-20T01:46:44.909Z,100877.91
2022-10-20T01:49:50.655Z,100879.88
2022-10-20T01:53:01.062Z,100884.06
2022-10-20T01:56:07.687Z,100891.00
2022-10-20T01:59:22.546Z,100879.81
2022-10-20T02:02:48.557Z,100889.84
2022-10-20T02:06:17.102Z,100889.53
2022-10-20T02:09:42.068Z,100882.16
2022-10-20T02:12:51.935Z,100891.03
2022-10-20T02:16:39.665Z,100895.88
2022-10-20T02:19:46.687Z,100899.38
2022-10-20T02:22:51.731Z,100903.22
2022-10-20T02:25:57.214Z,100886.03
2022-10-20T02:29:33.355Z,100894.66
2022-10-20T02:32:40.140Z,100871.94
2022-10-20T02:35:54.925Z,100887.59
2022-10-20T02:38:59.196Z,100881.50
2022-10-20T02:42:03.388Z,100879.06
2022-10-20T02:45:09.215Z,100885.44
2022-10-20T02:48:16.507Z,100875.03
2022-10-20T02:51:21.867Z,100867.31
2022-10-20T02:54:26.037Z,100869.38
2022-10-20T02:57:30.634Z,100848.97
2022-10-20T03:00:35.114Z,100879.00
2022-10-20T03:03:39.611Z,100849.19
2022-10-20T03:06:44.822Z,100876.34
2022-10-20T03:09:49.919Z,100887.66
2022-10-20T03:12:54.353Z,100870.69
2022-10-20T03:15:58.787Z,100881.19
2022-10-20T03:19:06.301Z,100863.84
2022-10-20T03:22:12.010Z,100870.16
2022-10-20T03:25:16.895Z,100884.91
2022-10-20T03:28:21.246Z,100883.25
2022-10-20T03:31:26.054Z,100862.16
2022-10-20T03:34:30.399Z,100888.31
2022-10-20T03:37:34.938Z,100833.09
2022-10-20T03:40:39.180Z,100879.56
2022-10-20T03:43:43.807Z,100896.63
2022-10-20T03:46:48.285Z,100871.28
2022-10-20T03:49:52.788Z,100881.50
2022-10-20T03:52:56.983Z,100871.63
2022-10-20T03:56:06.002Z,100867.84
2022-10-20T03:59:12.486Z,100886.38
2022-10-20T04:02:29.760Z,100883.50
2022-10-20T04:05:34.020Z,100880.81
2022-10-20T04:08:38.912Z,100884.91
2022-10-20T04:11:43.417Z,100892.00
2022-10-20T04:14:51.681Z,100891.09
2022-10-20T04:17:56.344Z,100892.47
2022-10-20T04:21:01.042Z,100889.16
2022-10-20T04:24:06.564Z,100893.88
2022-10-20T04:27:11.036Z,100900.38
2022-10-20T04:30:18.300Z,100888.13
2022-10-20T04:33:22.771Z,100891.75
2022-10-20T04:36:27.016Z,100864.94
2022-10-20T04:39:33.941Z,100881.56
2022-10-20T04:42:38.515Z,100900.72
2022-10-20T04:45:44.645Z,100898.00
2022-10-20T04:48:50.274Z,100906.63
2022-10-20T04:51:58.628Z,100911.53
2022-10-20T04:55:05.167Z,100910.09
2022-10-20T04:58:09.812Z,100908.25
2022-10-20T05:01:14.107Z,100925.88
2022-10-20T05:04:22.287Z,100919.19
2022-10-20T05:07:26.839Z,100922.78
2022-10-20T05:10:34.406Z,100915.50
2022-10-20T05:13:41.392Z,100921.97
2022-10-20T05:16:45.646Z,100927.59
2022-10-20T05:19:50.442Z,100928.44
2022-10-20T05:22:54.727Z,100916.94
2022-10-20T05:25:59.387Z,100920.56
2022-10-20T05:29:06.761Z,100939.38
2022-10-20T05:32:12.813Z,100941.41
2022-10-20T05:35:17.366Z,100917.81
2022-10-20T05:38:21.655Z,100913.53
2022-10-20T05:41:34.748Z,100940.69
2022-10-20T05:44:42.472Z,100939.59
2022-10-20T05:47:46.728Z,100943.31
2022-10-20T05:50:51.358Z,100942.22
2022-10-20T05:53:57.768Z,100939.66
2022-10-20T05:57:02.394Z,100951.59
2022-10-20T06:00:07.547Z,100941.63
2022-10-20T06:03:17.604Z,100960.97
2022-10-20T06:06:26.530Z,100955.09
2022-10-20T06:09:30.845Z,100935.28
2022-10-20T06:12:37.439Z,100975.25
2022-10-20T06:15:42.071Z,100970.72
2022-10-20T06:18:46.527Z,100975.75
2022-10-20T06:21:51.144Z,100981.19
2022-10-20T06:24:55.476Z,100986.59
2022-10-20T06:27:59.669Z,100990.53
2022-10-20T06:31:16.454Z,100990.47
2022-10-20T06:34:23.580Z,101007.16
2022-10-20T06:37:30.548Z,100978.16
2022-10-20T06:40:36.115Z,100967.25
2022-10-20T06:43:40.765Z,101001.09
2022-10-20T06:46:46.009Z,101005.84
2022-10-20T06:49:50.898Z,101011.66
2022-10-20T06:52:55.278Z,101027.03
2022-10-20T06:56:08.215Z,101022.06
2022-10-20T06:59:12.546Z,101023.81
2022-10-20T07:02:17.237Z,101035.06
2022-10-20T07:05:23.004Z,101020.25
2022-10-20T07:08:29.416Z,101042.94
2022-10-20T07:11:34.115Z,101050.56
2022-10-20T07:14:38.421Z,101052.69
2022-10-20T07:17:42.832Z,101062.50
2022-10-20T07:20:47.060Z,101046.78
2022-10-20T07:23:52.669Z,101065.38
2022-10-20T07:27:00.388Z,101062.81
2022-10-20T07:30:05.714Z,101060.34
2022-10-20T07:33:10.903Z,101080.19
2022-10-20T07:36:21.953Z,101078.59
2022-10-20T07:39:26.835Z,101079.81
2022-10-20T07:42:31.427Z,101080.94
2022-10-20T07:45:36.864Z,101083.28
2022-10-20T07:48:42.914Z,101077.25
2022-10-20T07:51:48.714Z,101079.31
2022-10-20T07:55:01.596Z,101098.16
2022-10-20T07:58:18.247Z,101098.41
2022-10-20T08:01:22.628Z,101104.00
2022-10-20T08:04:27.173Z,101105.06
2022-10-20T08:07:31.763Z,101110.78
2022-10-20T08:10:36.417Z,101119.06
2022-10-20T08:13:42.371Z,101130.78
2022-10-20T08:16:52.530Z,101121.28
2022-10-20T08:23:15.380Z,101138.50
2022-10-20T08:26:23.441Z,101136.16
2022-10-20T08:29:29.022Z,101153.13
2022-10-20T08:32:34.130Z,101158.50
2022-10-20T08:35:38.616Z,101141.00
2022-10-20T08:38:44.627Z,101154.22
2022-10-20T08:42:08.910Z,101164.84
2022-10-20T08:45:38.493Z,101163.16
2022-10-20T08:48:44.581Z,101166.81
2022-10-20T08:51:49.557Z,101165.97
2022-10-20T08:54:58.851Z,101175.69
2022-10-20T08:58:29.890Z,101172.25
2022-10-20T09:01:37.171Z,101123.13
2022-10-20T09:05:02.871Z,101188.19
2022-10-20T09:08:10.894Z,101196.06
2022-10-20T09:11:24.066Z,101191.75
2022-10-20T09:14:31.912Z,101206.84
2022-10-20T09:17:37.198Z,101213.88
2022-10-20T09:20:53.363Z,101208.66
2022-10-20T09:24:02.148Z,101209.47
2022-10-20T09:27:25.051Z,101225.28
2022-10-20T09:30:35.383Z,101225.31
2022-10-20T09:33:39.731Z,101228.00
2022-10-20T09:36:44.622Z,101214.81
2022-10-20T09:39:55.559Z,101234.28
2022-10-20T09:43:03.334Z,101236.94
2022-10-20T09:46:11.332Z,101235.34
2022-10-20T09:49:38.157Z,101225.69
2022-10-20T09:52:49.879Z,101243.25
2022-10-20T09:55:54.703Z,101239.69
2022-10-20T09:59:02.261Z,101231.00
2022-10-20T10:02:27.596Z,101236.31
2022-10-20T10:05:34.595Z,101233.72
2022-10-20T10:08:47.568Z,101231.91
2022-10-20T10:12:03.560Z,101239.00
2022-10-20T10:15:25.905Z,101240.78
2022-10-20T10:18:30.641Z,101183.63
2022-10-20T10:21:52.946Z,101239.91
2022-10-20T10:24:58.218Z,101242.50
2022-10-20T10:28:20.853Z,101240.72
2022-10-20T10:31:27.044Z,101217.00
2022-10-20T10:35:05.277Z,101255.75
2022-10-20T10:38:13.992Z,101253.97
2022-10-20T10:41:29.947Z,101197.56
2022-10-20T10:44:34.291Z,101266.00
2022-10-20T10:48:02.795Z,101278.38
2022-10-20T10:51:19.819Z,101261.59
2022-10-20T10:55:05.031Z,101274.81
2022-10-20T10:58:30.247Z,101219.97
2022-10-20T11:01:40.589Z,101283.44
2022-10-20T11:08:47.886Z,101285.31
2022-10-20T11:11:55.589Z,101285.34
2022-10-20T11:15:26.397Z,101272.09
2022-10-20T11:18:33.683Z,101287.03
2022-10-20T11:21:56.826Z,101279.81
2022-10-20T11:25:01.656Z,101282.47
2022-10-20T11:28:26.853Z,101271.97
2022-10-20T11:31:39.681Z,101281.81
2022-10-20T11:35:24.226Z,101281.84
2022-10-20T11:38:56.005Z,101283.50
2022-10-20T11:42:14.213Z,101287.69
2022-10-20T11:45:43.680Z,101284.13
2022-10-20T11:48:53.434Z,101262.22
2022-10-20T11:52:22.902Z,101294.81
2022-10-20T11:55:44.730Z,101291.34
2022-10-20T11:59:36.719Z,101272.97
2022-10-20T12:03:04.878Z,101288.63
2022-10-20T12:06:35.572Z,101287.00
2022-10-20T12:09:58.232Z,101295.06
2022-10-20T12:13:15.231Z,101296.81
2022-10-20T12:16:54.321Z,101299.38
2022-10-20T12:20:23.203Z,101300.88
2022-10-20T12:23:53.950Z,101303.53
2022-10-20T12:27:04.127Z,101301.66
2022-10-20T12:30:38.718Z,101300.00
2022-10-20T12:33:55.550Z,101299.00
2022-10-20T12:37:19.398Z,101291.94
2022-10-20T12:41:23.288Z,101302.69
2022-10-20T12:44:30.755Z,101314.00
2022-10-20T12:47:38.567Z,101329.88
2022-10-20T12:50:50.263Z,101325.31
2022-10-20T12:54:07.788Z,101325.94
2022-10-20T12:57:43.936Z,101335.72
2022-10-20T13:00:48.387Z,101344.69
2022-10-20T13:03:53.722Z,101329.78
2022-10-20T13:06:58.137Z,101341.31
2022-10-20T13:10:04.326Z,101331.69
2022-10-20T13:13:09.554Z,101348.31
2022-10-20T13:16:21.142Z,101328.03
2022-10-20T13:19:34.864Z,101329.38
2022-10-20T13:26:25.391Z,101333.19
2022-10-20T13:29:35.398Z,101292.31
2022-10-20T13:33:33.397Z,101311.13
2022-10-20T13:37:00.596Z,101331.78
2022-10-20T13:40:11.758Z,101336.09
2022-10-20T13:43:19.203Z,101333.44
2022-10-20T13:46:46.957Z,101332.81
2022-10-20T13:50:06.779Z,101339.69
2022-10-20T13:53:23.093Z,101338.66
2022-10-20T13:56:34.862Z,101337.22
2022-10-20T13:59:41.871Z,101321.50
2022-10-20T14:03:03.013Z,101327.31
2022-10-20T14:06:07.171Z,101313.28
2022-10-20T14:09:27.064Z,101326.91
2022-10-20T14:12:33.358Z,101326.50
2022-10-20T14:15:39.039Z,101324.19
2022-10-20T14:18:43.444Z,101313.59
2022-10-20T14:21:55.202Z,101307.81
2022-10-20T14:25:01.042Z,101315.94
2022-10-20T14:28:08.078Z,101305.41
2022-10-20T14:31:14.960Z,101318.13
2022-10-20T14:34:31.880Z,101314.28
2022-10-20T14:37:42.956Z,101310.19
2022-10-20T14:40:54.169Z,101282.50
2022-10-20T14:44:12.190Z,101277.97
2022-10-20T14:47:21.947Z,101319.28
2022-10-20T14:50:28.899Z,101319.00
2022-10-20T14:53:34.859Z,101304.03
2022-10-20T14:56:44.206Z,101308.22
2022-10-20T15:00:13.900Z,101311.09
2022-10-20T15:03:18.894Z,101305.97
2022-10-20T15:06:23.427Z,101301.41
2022-10-20T15:09:33.937Z,101283.38
2022-10-20T15:12:38.512Z,101289.69
2022-10-20T15:15:42.995Z,101281.81
2022-10-20T15:18:47.386Z,101269.47
2022-10-20T15:22:09.186Z,101254.22
2022-10-20T15:25:13.974Z,101279.69
2022-10-20T15:28:27.368Z,101270.47
2022-10-20T15:31:32.335Z,101255.84
2022-10-20T15:34:36.682Z,101254.97
2022-10-20T15:37:40.975Z,101249.44
2022-10-20T15:40:45.523Z,101252.22
2022-10-20T15:43:50.762Z,101255.50
2022-10-20T15:46:54.968Z,101259.16
2022-10-20T15:49:59.353Z,101217.41
2022-10-20T15:53:03.710Z,101264.56
2022-10-20T15:56:09.854Z,101268.97
2022-10-20T15:59:14.379Z,101261.31
2022-10-20T16:02:18.808Z,101264.91
2022-10-20T16:05:25.245Z,101277.28
2022-10-20T16:08:30.106Z,101234.78
2022-10-20T16:11:34.643Z,101268.22
2022-10-20T16:14:40.737Z,101271.63
2022-10-20T16:17:45.833Z,101278.44
2022-10-20T16:20:50.423Z,101276.81
2022-10-20T16:23:54.979Z,101270.78
2022-10-20T16:26:59.375Z,101292.09
2022-10-20T16:30:05.669Z,101274.75
2022-10-20T16:33:10.332Z,101271.28
2022-10-20T16:36:17.528Z,101285.03
2022-10-20T16:39:21.855Z,101273.09
2022-10-20T16:42:27.302Z,101289.97
2022-10-20T16:45:32.658Z,101298.69
2022-10-20T16:48:41.500Z,101302.16
2022-10-20T16:51:47.408Z,101292.19
2022-10-20T16:54:51.691Z,101295.66
2022-10-20T16:57:57.252Z,101295.59
2022-10-20T17:01:09.637Z,101292.25
2022-10-20T17:04:15.350Z,101298.50
2022-10-20T17:07:20.140Z,101301.16
2022-10-20T17:10:24.972Z,101308.25
2022-10-20T17:13:30.582Z,101285.53
2022-10-20T17:16:38.361Z,101293.34
2022-10-20T17:19:44.218Z,101254.94
2022-10-20T17:22:48.959Z,101290.38
2022-10-20T17:26:04.054Z,101281.25
2022-10-20T17:29:10.476Z,101291.47
2022-10-20T17:32:17.444Z,101279.06
2022-10-20T17:35:23.082Z,101298.56
2022-10-20T17:38:29.063Z,101274.44
2022-10-20T17:41:33.334Z,101276.34
2022-10-20T17:44:37.777Z,101251.47
2022-10-20T17:47:42.058Z,101249.94
2022-10-20T17:50:46.797Z,101241.72
2022-10-20T17:53:53.571Z,101230.25
2022-10-20T17:56:58.388Z,101236.91
2022-10-20T18:00:05.615Z,101230.47
2022-10-20T18:03:15.558Z,101226.97
2022-10-20T18:06:22.156Z,101213.53
2022-10-20T18:09:26.635Z,101214.56
2022-10-20T18:12:32.444Z,101216.25
2022-10-20T18:15:42.672Z,101222.56
2022-10-20T18:18:47.415Z,101214.53
2022-10-20T18:21:51.959Z,101201.22
2022-10-20T18:24:56.205Z,101211.53
2022-10-20T18:28:00.755Z,101209.88
2022-10-20T18:31:10.852Z,101204.72
2022-10-20T18:34:18.154Z,101215.59
2022-10-20T18:37:22.637Z,101221.91
2022-10-20T18:40:26.876Z,101201.84
2022-10-20T18:43:31.197Z,101198.94
2022-10-20T18:46:35.928Z,101206.88
2022-10-20T18:49:40.224Z,101206.34
2022-10-20T18:52:44.780Z,101202.50
2022-10-20T18:56:04.816Z,101208.53
2022-10-20T18:59:11.453Z,101214.09
2022-10-20T19:02:15.771Z,101218.88
2022-10-20T19:05:20.607Z,101206.97
2022-10-20T19:08:26.587Z,101188.88
2022-10-20T19:11:33.075Z,101219.56
2022-10-20T19:14:37.478Z,101248.03
2022-10-20T19:17:41.816Z,101242.34
2022-10-20T19:20:54.159Z,101176.13
2022-10-20T19:24:02.263Z,101190.59
2022-10-20T19:27:25.683Z,101234.44
2022-10-20T19:30:36.233Z,101220.38
2022-10-20T19:33:40.586Z,101214.31
2022-10-20T19:36:48.658Z,101212.38
2022-10-20T19:39:53.327Z,101200.69
2022-10-20T19:42:57.605Z,101202.41
2022-10-20T19:46:02.171Z,101218.69
2022-10-20T19:52:18.196Z,101228.78
2022-10-20T19:55:22.758Z,101201.66
2022-10-20T19:58:27.484Z,101211.63
2022-10-20T20:01:32.186Z,101188.06
2022-10-20T20:04:36.845Z,101212.63
2022-10-20T20:07:41.401Z,101199.78
2022-10-20T20:10:53.906Z,101198.50
2022-10-20T20:14:01.687Z,101193.66
2022-10-20T20:17:07.427Z,101181.66
2022-10-20T20:20:14.790Z,101187.78
2022-10-20T20:23:26.047Z,101185.25
2022-10-20T20:26:39.490Z,101168.09
2022-10-20T20:29:44.033Z,101164.75
2022-10-20T20:32:50.750Z,101182.59
2022-10-20T20:36:01.006Z,101172.66
2022-10-20T20:39:05.629Z,101155.34
2022-10-20T20:42:10.201Z,101151.97
2022-10-20T20:45:15.819Z,101157.81
2022-10-20T20:48:20.457Z,101160.34
2022-10-20T20:51:29.944Z,101154.28
2022-10-20T20:54:34.465Z,101155.50
2022-10-20T20:57:39.454Z,101156.09
2022-10-20T21:00:43.929Z,101151.16
2022-10-20T21:03:48.737Z,101141.81
2022-10-20T21:07:02.529Z,101147.66
2022-10-20T21:10:07.787Z,101141.72
2022-10-20T21:13:12.493Z,101144.56
2022-10-20T21:16:22.491Z,101110.41
2022-10-20T21:19:27.179Z,101131.38
2022-10-20T21:22:31.684Z,101107.69
2022-10-20T21:25:36.107Z,101135.88
2022-10-20T21:28:40.436Z,101134.13
2022-10-20T21:31:44.625Z,101132.16
2022-10-20T21:34:48.816Z,101134.88
2022-10-20T21:37:53.091Z,101128.88
2022-10-20T21:41:03.674Z,101081.34
2022-10-20T21:44:09.179Z,101112.44
2022-10-20T21:47:13.264Z,101106.59
2022-10-20T21:50:17.905Z,101093.56
2022-10-20T21:53:22.415Z,101101.44
2022-10-20T21:56:27.016Z,101106.72
2022-10-20T21:59:32.098Z,101106.75
2022-10-20T22:02:37.193Z,101083.06
2022-10-20T22:05:41.699Z,101088.38
2022-10-20T22:08:50.668Z,101086.56
2022-10-20T22:11:57.642Z,101091.06
2022-10-20T22:15:01.933Z,101091.03
2022-10-20T22:18:08.180Z,101075.25
2022-10-20T22:21:15.392Z,101093.75
2022-10-20T22:24:20.531Z,101091.97
2022-10-20T22:27:31.644Z,101070.03
2022-10-20T22:30:46.336Z,101080.59
2022-10-20T22:33:58.236Z,101070.97
2022-10-20T22:37:02.742Z,101060.41
2022-10-20T22:40:07.757Z,101057.75
2022-10-20T22:43:12.377Z,101049.00
2022-10-20T22:46:17.135Z,101071.91
2022-10-20T22:49:21.611Z,101063.94
2022-10-20T22:52:26.003Z,101055.13
2022-10-20T22:55:30.342Z,101044.56
2022-10-20T22:58:35.016Z,101042.81
2022-10-20T23:01:39.883Z,101040.97
2022-10-20T23:04:44.008Z,101033.09
2022-10-20T23:07:48.441Z,101040.97
2022-10-20T23:10:59.939Z,101034.81
2022-10-20T23:14:04.044Z,101027.78
2022-10-20T23:17:08.551Z,101051.50
2022-10-20T23:20:13.067Z,101061.25
2022-10-20T23:23:17.264Z,101057.72
2022-10-20T23:26:22.069Z,101055.00
2022-10-20T23:29:26.644Z,101036.47
2022-10-20T23:32:31.036Z,101016.25
2022-10-20T23:35:39.557Z,101058.34
2022-10-20T23:38:44.717Z,101055.59
2022-10-20T23:41:49.022Z,101054.63
2022-10-20T23:44:53.036Z,101052.97
2022-10-20T23:47:57.684Z,101048.53
2022-10-20T23:51:02.472Z,101051.13
2022-10-20T23:54:06.797Z,101052.84
2022-10-20T23:57:10.965Z,101049.25
